Time;durP1;ratioP1;P1;durP2;ratioP2;P2;SDS_P1;SDS_P2;PMS_P1;PMS_P2;Temp;Humidity;BMP_temperature;BMP_pressure;BME280_temperature;BME280_humidity;BME280_pressure;Samples;Min_cycle;Max_cycle;Signal;HPM_P1;HPM_P2
2022/09/09 00:01:31;;;;;;;4.03;1.05;;;18.20;99.90;;;-147.18;100.00;67318.16;5072551;28;20056;-83
2022/09/09 00:05:02;;;;;;;4.13;0.90;;;18.20;99.90;;;-147.18;100.00;67318.16;5072374;28;20033;-83
2022/09/09 00:08:42;;;;;;;3.55;0.90;;;18.20;99.90;;;-147.18;100.00;67318.16;5072686;28;20047;-83
2022/09/09 00:12:13;;;;;;;6.00;1.05;;;18.20;99.90;;;-147.18;100.00;67318.16;5071001;28;20068;-83
2022/09/09 00:15:52;;;;;;;3.83;1.00;;;18.20;99.90;;;-147.18;100.00;67318.16;5067426;28;20428;-83
2022/09/09 00:19:28;;;;;;;5.72;0.90;;;18.20;99.90;;;-147.18;100.00;67318.16;5071781;28;20033;-83
2022/09/09 00:23:07;;;;;;;4.78;0.80;;;18.20;99.90;;;-147.18;100.00;67318.16;5071803;28;20119;-83
2022/09/09 00:26:40;;;;;;;4.43;0.90;;;18.20;99.90;;;-147.18;100.00;67318.16;5064902;28;20564;-83
2022/09/09 00:30:18;;;;;;;3.00;0.80;;;18.20;99.90;;;-147.18;100.00;67318.16;5069903;28;20045;-83
2022/09/09 00:33:44;;;;;;;3.47;0.90;;;18.20;99.90;;;-147.18;100.00;67318.16;5070479;28;20059;-83
2022/09/09 00:37:13;;;;;;;5.75;1.00;;;18.10;99.90;;;-147.18;100.00;67318.16;5047899;28;20041;-83
2022/09/09 00:40:46;;;;;;;3.50;0.95;;;18.10;99.90;;;-147.18;100.00;67318.16;5069960;28;20047;-83
2022/09/09 00:44:30;;;;;;;3.80;0.90;;;18.10;99.90;;;-147.18;100.00;67318.16;5051658;28;20054;-83
2022/09/09 00:48:08;;;;;;;3.28;0.80;;;18.00;99.90;;;-147.18;100.00;67318.16;5068131;28;20048;-83
2022/09/09 00:51:50;;;;;;;6.78;1.42;;;18.00;99.90;;;-147.18;100.00;67318.16;5051117;28;20159;-83
2022/09/09 00:55:40;;;;;;;2.70;0.88;;;18.00;99.90;;;-147.18;100.00;67318.16;5068916;28;20044;-83
2022/09/09 00:59:13;;;;;;;2.83;0.80;;;18.00;99.90;;;-147.18;100.00;67318.16;5069928;28;20044;-83
2022/09/09 01:02:41;;;;;;;2.00;0.80;;;18.00;99.90;;;-147.18;100.00;67318.16;5033867;28;20132;-83
2022/09/09 01:06:15;;;;;;;2.50;0.70;;;18.00;99.90;;;-147.18;100.00;67318.16;5040787;28;20043;-83
2022/09/09 01:10:07;;;;;;;2.65;0.95;;;18.00;99.90;;;-147.18;100.00;67318.16;5064373;28;20047;-83
2022/09/09 01:13:42;;;;;;;4.22;1.00;;;17.90;99.90;;;-147.18;100.00;67318.16;5051392;28;20041;-83
2022/09/09 01:17:14;;;;;;;4.20;0.98;;;18.00;99.90;;;-147.18;100.00;67318.16;5050368;28;20041;-83
2022/09/09 01:20:56;;;;;;;4.97;1.10;;;18.00;99.90;;;-147.18;100.00;67318.16;5063155;28;20049;-83
2022/09/09 01:25:05;;;;;;;5.00;1.02;;;17.90;99.90;;;-147.18;100.00;67318.16;5049211;28;20515;-83
2022/09/09 01:28:53;;;;;;;3.97;1.17;;;17.90;99.90;;;-147.18;100.00;67318.16;5048181;28;20044;-83
2022/09/09 01:32:40;;;;;;;;;;;17.90;99.90;;;-147.18;100.00;67318.16;5052114;28;20055;-83
2022/09/09 01:36:13;;;;;;;3.65;1.13;;;17.90;99.90;;;-147.18;100.00;67318.16;5064415;28;19951;-83
2022/09/09 01:39:48;;;;;;;11.82;1.40;;;17.90;99.90;;;-147.18;100.00;67318.16;5064486;28;20055;-83
2022/09/09 01:43:17;;;;;;;4.38;1.40;;;17.90;99.90;;;-147.18;100.00;67318.16;5033220;28;20095;-83
2022/09/09 01:46:44;;;;;;;2.42;1.00;;;17.90;99.90;;;-147.18;100.00;67318.16;5046434;28;20045;-83
2022/09/09 01:50:19;;;;;;;4.10;1.15;;;17.90;99.90;;;-147.18;100.00;67318.16;5068851;28;20416;-83
2022/09/09 01:53:48;;;;;;;3.72;1.33;;;17.90;99.90;;;-147.18;100.00;67318.16;5068759;28;20790;-82
2022/09/09 01:57:29;;;;;;;5.00;1.52;;;17.90;99.90;;;-147.18;100.00;67318.16;5066719;28;20036;-83
2022/09/09 02:01:06;;;;;;;3.20;1.30;;;17.80;99.90;;;-147.18;100.00;67318.16;5060517;28;20060;-83
2022/09/09 02:04:37;;;;;;;4.80;1.40;;;17.90;99.90;;;-147.18;100.00;67318.16;5037968;28;20044;-83
2022/09/09 02:08:25;;;;;;;3.97;1.45;;;17.80;99.90;;;-147.18;100.00;67318.16;5051171;28;20051;-80
2022/09/09 02:12:07;;;;;;;3.42;1.33;;;17.80;99.90;;;-147.18;100.00;67318.16;5048950;28;20059;-80
2022/09/09 02:15:48;;;;;;;7.32;1.80;;;17.80;99.90;;;-147.18;100.00;67318.16;5049700;28;20139;-80
2022/09/09 02:19:26;;;;;;;3.70;1.40;;;17.70;99.90;;;-147.18;100.00;67318.16;5051200;28;20051;-79
2022/09/09 02:23:22;;;;;;;5.82;1.55;;;17.70;99.90;;;-147.18;100.00;67318.16;5060555;28;20044;-80
2022/09/09 02:26:55;;;;;;;8.20;1.63;;;17.70;99.90;;;-147.18;100.00;67318.16;5063699;28;20101;-80
2022/09/09 02:30:23;;;;;;;6.45;1.48;;;17.70;99.90;;;-147.18;100.00;67318.16;5050628;28;20294;-80
2022/09/09 02:34:00;;;;;;;6.15;1.67;;;17.70;99.90;;;-147.18;100.00;67318.16;5048330;28;20067;-80
2022/09/09 02:37:32;;;;;;;5.90;1.75;;;17.70;99.90;;;-147.18;100.00;67318.16;5050619;28;20155;-80
2022/09/09 02:40:58;;;;;;;5.70;2.00;;;17.70;99.90;;;-147.18;100.00;67318.16;5051217;28;20098;-80
2022/09/09 02:44:23;;;;;;;5.78;1.80;;;17.70;99.90;;;-147.18;100.00;67318.16;5049724;28;20040;-80
2022/09/09 02:48:10;;;;;;;7.22;2.30;;;17.70;99.90;;;-147.18;100.00;67318.16;5056070;28;20036;-80
2022/09/09 02:51:46;;;;;;;5.47;1.98;;;17.70;99.90;;;-147.18;100.00;67318.16;5053465;28;20055;-80
2022/09/09 02:55:21;;;;;;;4.75;1.75;;;17.70;99.90;;;-147.18;100.00;67318.16;5063454;28;20045;-80
2022/09/09 02:58:51;;;;;;;5.38;2.22;;;17.70;99.90;;;-147.18;100.00;67318.16;5051860;28;20410;-80
2022/09/09 03:02:18;;;;;;;7.63;2.40;;;17.70;99.90;;;-147.18;100.00;67318.16;5050147;28;20131;-80
2022/09/09 03:05:49;;;;;;;6.72;1.92;;;17.70;99.90;;;-147.18;100.00;67318.16;5053862;28;20040;-79
2022/09/09 03:09:15;;;;;;;8.48;2.63;;;17.70;99.90;;;-147.18;100.00;67318.16;5073042;28;20497;-80
2022/09/09 03:12:40;;;;;;;5.95;2.20;;;17.80;99.90;;;-147.18;100.00;67318.16;5055621;28;20044;-80
2022/09/09 03:16:07;;;;;;;7.53;2.90;;;17.80;99.90;;;-147.18;100.00;67318.16;5070257;28;20060;-80
2022/09/09 03:19:39;;;;;;;6.10;2.35;;;17.80;99.90;;;-147.18;100.00;67318.16;5055190;28;20032;-80
2022/09/09 03:23:10;;;;;;;6.50;2.40;;;17.80;99.90;;;-147.18;100.00;67318.16;5053671;28;20398;-80
2022/09/09 03:26:37;;;;;;;6.25;2.40;;;17.80;99.90;;;-147.18;100.00;67318.16;5065453;28;20397;-80
2022/09/09 03:30:04;;;;;;;6.35;2.70;;;17.80;99.90;;;-147.18;100.00;67318.16;5049511;28;20049;-80
2022/09/09 03:33:31;;;;;;;7.05;2.50;;;17.90;99.90;;;-147.18;100.00;67318.16;5035034;28;20092;-80
2022/09/09 03:36:57;;;;;;;12.02;2.30;;;17.80;99.90;;;-147.18;100.00;67318.16;5050720;28;20048;-80
2022/09/09 03:40:25;;;;;;;7.45;2.38;;;17.80;99.90;;;-147.18;100.00;67318.16;5064027;28;20041;-80
2022/09/09 03:43:52;;;;;;;7.03;2.28;;;17.80;99.90;;;-147.18;100.00;67318.16;5053881;28;20048;-80
2022/09/09 03:47:19;;;;;;;6.22;2.22;;;17.80;99.90;;;-147.18;100.00;67318.16;5046087;28;20132;-80
2022/09/09 03:50:45;;;;;;;7.63;2.65;;;17.80;99.90;;;-147.18;100.00;67318.16;5043411;28;20573;-80
2022/09/09 03:54:11;;;;;;;7.88;2.33;;;17.80;99.90;;;-147.18;100.00;67318.16;5071587;28;20141;-80
2022/09/09 03:57:39;;;;;;;5.20;2.25;;;17.80;99.90;;;-147.18;100.00;67318.16;5053660;28;20053;-80
2022/09/09 04:01:10;;;;;;;9.88;2.67;;;17.80;99.90;;;-147.18;100.00;67318.16;5052986;28;20086;-80
2022/09/09 04:04:36;;;;;;;7.25;2.22;;;17.80;99.90;;;-147.18;100.00;67318.16;5065333;28;20037;-80
2022/09/09 04:08:03;;;;;;;6.80;2.20;;;17.80;99.90;;;-147.18;100.00;67318.16;5054105;28;20052;-78
2022/09/09 04:11:29;;;;;;;7.88;2.50;;;17.80;99.90;;;-147.18;100.00;67318.16;5054455;28;20044;-78
2022/09/09 04:14:59;;;;;;;7.40;1.92;;;17.80;99.90;;;-147.18;100.00;67318.16;5049589;28;20041;-80
2022/09/09 04:18:25;;;;;;;6.30;2.30;;;17.80;99.90;;;-147.18;100.00;67318.16;5069264;28;20141;-83
2022/09/09 04:21:52;;;;;;;8.73;2.30;;;17.80;99.90;;;-147.18;100.00;67318.16;5066707;28;20064;-83
2022/09/09 04:25:20;;;;;;;8.73;2.22;;;17.80;99.90;;;-147.18;100.00;67318.16;5067334;28;20028;-83
2022/09/09 04:28:46;;;;;;;7.85;2.65;;;17.80;99.90;;;-147.18;100.00;67318.16;5069831;28;20044;-81
2022/09/09 04:32:19;;;;;;;6.28;2.40;;;17.70;99.90;;;-147.18;100.00;67318.16;5034962;28;20041;-82
2022/09/09 04:35:47;;;;;;;7.43;2.50;;;17.80;99.90;;;-147.18;100.00;67318.16;5044032;28;20079;-82
2022/09/09 04:39:14;;;;;;;10.88;2.90;;;17.70;99.90;;;-147.18;100.00;67318.16;5036898;28;20099;-82
2022/09/09 04:42:43;;;;;;;6.97;2.38;;;17.70;99.90;;;-147.18;100.00;67318.16;5093045;23;20047;-78
2022/09/09 04:46:11;;;;;;;12.73;2.95;;;17.70;99.90;;;-147.18;100.00;67318.16;5101586;27;20134;-76
2022/09/09 04:49:39;;;;;;;5.63;2.70;;;17.70;99.90;;;-147.18;100.00;67318.16;5090875;28;20063;-76
2022/09/09 04:53:05;;;;;;;9.10;2.80;;;17.60;99.90;;;-147.18;100.00;67318.16;5089741;28;20036;-76
2022/09/09 04:56:32;;;;;;;7.63;2.80;;;17.70;99.90;;;-147.18;100.00;67318.16;5084102;28;20527;-76
2022/09/09 04:59:59;;;;;;;8.95;3.05;;;17.70;99.90;;;-147.18;100.00;67318.16;5058648;28;20048;-76
2022/09/09 05:03:32;;;;;;;5.30;2.45;;;17.70;99.90;;;-147.18;100.00;67318.16;5070635;28;20048;-76
2022/09/09 05:07:04;;;;;;;5.90;2.70;;;17.70;99.90;;;-147.18;100.00;67318.16;5071578;28;20044;-76
2022/09/09 05:10:30;;;;;;;6.88;2.50;;;17.70;99.90;;;-147.18;100.00;67318.16;5101302;28;20134;-76
2022/09/09 05:13:57;;;;;;;9.55;2.90;;;17.70;99.90;;;-147.18;100.00;67318.16;5094326;28;20121;-75
2022/09/09 05:17:23;;;;;;;9.32;2.88;;;17.80;99.90;;;-147.18;100.00;67318.16;5087726;28;20070;-75
2022/09/09 05:20:49;;;;;;;11.98;2.70;;;17.80;99.90;;;-147.18;100.00;67318.16;5083914;28;20553;-76
2022/09/09 05:24:16;;;;;;;8.27;2.88;;;17.70;99.90;;;-147.18;100.00;67318.16;5094859;28;20412;-77
2022/09/09 05:27:43;;;;;;;6.32;2.50;;;17.70;99.90;;;-147.18;100.00;67318.16;5079903;28;20559;-84
2022/09/09 05:31:12;;;;;;;11.07;3.08;;;17.80;99.90;;;-147.18;100.00;67318.16;5088510;28;20059;-77
2022/09/09 05:34:39;;;;;;;6.10;2.38;;;17.80;99.90;;;-147.18;100.00;67318.16;5103845;28;20131;-76
2022/09/09 05:38:05;;;;;;;9.13;2.65;;;17.80;99.90;;;-147.18;100.00;67318.16;5089839;28;20035;-76
2022/09/09 05:41:32;;;;;;;9.35;3.17;;;17.80;99.90;;;-147.18;100.00;67318.16;5066368;28;20052;-77
2022/09/09 05:45:01;;;;;;;7.50;3.10;;;17.80;99.90;;;-147.18;100.00;67318.16;5095695;28;20064;-77
2022/09/09 05:48:28;;;;;;;8.63;2.80;;;17.80;99.90;;;-147.18;100.00;67318.16;5087226;28;20058;-77
2022/09/09 05:51:54;;;;;;;6.60;3.08;;;17.90;99.90;;;-147.18;100.00;67318.16;5097047;28;20075;-77
2022/09/09 05:55:20;;;;;;;9.88;2.85;;;17.90;99.90;;;-147.18;100.00;67318.16;5091448;28;20050;-76
2022/09/09 05:58:50;;;;;;;11.43;2.92;;;17.90;99.90;;;-147.18;100.00;67318.16;5088549;28;20067;-77
2022/09/09 06:02:18;;;;;;;;;;;17.90;99.90;;;-147.18;100.00;67318.16;5089846;28;20502;-77
2022/09/09 06:05:44;;;;;;;9.00;2.95;;;18.00;99.90;;;-147.18;100.00;67318.16;5069279;28;19932;-77
2022/09/09 06:09:11;;;;;;;9.68;3.15;;;18.00;99.90;;;-147.18;100.00;67318.16;5087299;28;20121;-77
2022/09/09 06:12:39;;;;;;;14.00;3.40;;;18.00;99.90;;;-147.18;100.00;67318.16;5084842;28;20136;-77
2022/09/09 06:16:09;;;;;;;11.85;4.13;;;18.00;99.90;;;-147.18;100.00;67318.16;5082540;28;20042;-77
2022/09/09 06:19:35;;;;;;;9.73;3.30;;;18.10;99.90;;;-147.18;100.00;67318.16;5083465;28;20052;-77
2022/09/09 06:23:01;;;;;;;10.20;2.80;;;18.10;99.90;;;-147.18;100.00;67318.16;5075686;28;20050;-77
2022/09/09 06:26:27;;;;;;;11.48;3.47;;;18.10;99.90;;;-147.18;100.00;67318.16;5056056;28;20040;-77
2022/09/09 06:29:55;;;;;;;10.93;2.63;;;18.20;99.90;;;-147.18;100.00;67318.16;5074585;28;20864;-77
2022/09/09 06:33:22;;;;;;;11.25;2.90;;;18.20;99.90;;;-147.18;100.00;67318.16;5095886;28;20036;-77
2022/09/09 06:36:51;;;;;;;6.90;2.42;;;18.30;99.90;;;-147.18;100.00;67318.16;5068718;28;20060;-77
2022/09/09 06:40:17;;;;;;;9.70;2.88;;;18.30;99.90;;;-147.18;100.00;67318.16;5076906;28;20131;-77
2022/09/09 06:43:43;;;;;;;8.25;3.00;;;18.40;99.90;;;-147.18;100.00;67318.16;5070674;28;20047;-77
2022/09/09 06:47:12;;;;;;;9.00;3.00;;;18.40;99.90;;;-147.18;100.00;67318.16;5066541;28;20448;-77
2022/09/09 06:50:41;;;;;;;9.50;2.63;;;18.40;99.90;;;-147.18;100.00;67318.16;5069538;28;20040;-77
2022/09/09 06:54:07;;;;;;;8.98;2.45;;;18.40;99.90;;;-147.18;100.00;67318.16;5089938;28;20401;-77
2022/09/09 06:57:33;;;;;;;9.40;2.65;;;18.50;99.90;;;-147.18;100.00;67318.16;5064880;28;20048;-77
2022/09/09 07:01:05;;;;;;;12.00;2.75;;;18.50;99.90;;;-147.18;100.00;67318.16;5072126;28;20052;-77
2022/09/09 07:04:31;;;;;;;9.73;2.45;;;18.60;99.90;;;-147.18;100.00;67318.16;5072084;28;20048;-77
2022/09/09 07:07:58;;;;;;;10.15;2.78;;;18.60;99.90;;;-147.18;100.00;67318.16;5070630;28;20040;-77
2022/09/09 07:11:27;;;;;;;9.07;2.10;;;18.70;99.90;;;-147.18;100.00;67318.16;5063854;28;20053;-77
2022/09/09 07:14:53;;;;;;;9.52;2.17;;;18.70;99.90;;;-147.18;100.00;67318.16;5087827;28;20050;-76
2022/09/09 07:18:18;;;;;;;10.50;2.83;;;18.80;99.90;;;-147.18;100.00;67318.16;5085713;28;20043;-77
2022/09/09 07:21:53;;;;;;;8.45;2.53;;;18.80;99.90;;;-147.18;100.00;67318.16;5075768;28;20047;-77
2022/09/09 07:25:23;;;;;;;11.63;2.08;;;18.80;99.90;;;-147.18;100.00;67318.16;5055886;28;20050;-77
2022/09/09 07:28:49;;;;;;;8.65;2.25;;;18.80;99.90;;;-147.18;100.00;67318.16;5082375;28;20040;-77
2022/09/09 07:32:17;;;;;;;8.73;2.42;;;18.80;99.90;;;-147.18;100.00;67318.16;5070640;28;20040;-77
2022/09/09 07:35:43;;;;;;;12.65;2.53;;;18.90;99.90;;;-147.18;100.00;67318.16;5062568;28;20048;-77
2022/09/09 07:39:10;;;;;;;8.23;2.10;;;18.90;99.90;;;-147.18;100.00;67318.16;5080937;28;20514;-77
2022/09/09 07:42:39;;;;;;;8.23;1.98;;;19.00;99.90;;;-147.18;100.00;67318.16;5066411;28;20465;-77
2022/09/09 07:46:06;;;;;;;6.65;1.95;;;19.00;99.90;;;-147.18;100.00;67318.16;5081041;28;20486;-77
2022/09/09 07:49:32;;;;;;;10.98;2.25;;;19.10;99.90;;;-147.18;100.00;67318.16;5070372;28;20063;-77
2022/09/09 07:52:59;;;;;;;9.85;2.25;;;19.10;99.90;;;-147.18;100.00;67318.16;5072108;28;20040;-77
2022/09/09 07:56:26;;;;;;;7.93;1.98;;;19.20;99.90;;;-147.18;100.00;67318.16;5073588;28;20120;-76
2022/09/09 07:59:54;;;;;;;8.65;1.83;;;19.20;99.90;;;-147.18;100.00;67318.16;5073349;28;20167;-77
2022/09/09 08:03:21;;;;;;;9.88;1.92;;;19.30;99.90;;;-147.18;100.00;67318.16;5071909;28;20416;-76
2022/09/09 08:06:49;;;;;;;9.32;2.08;;;19.30;99.90;;;-147.18;100.00;67318.16;5086234;28;20131;-77
2022/09/09 08:10:17;;;;;;;6.00;2.08;;;19.30;99.90;;;-147.18;100.00;67318.16;5091073;28;20048;-76
2022/09/09 08:13:48;;;;;;;8.93;2.25;;;19.30;99.90;;;-147.18;100.00;67318.16;5079048;28;20404;-76
2022/09/09 08:17:17;;;;;;;11.32;2.25;;;19.40;99.90;;;-147.18;100.00;67318.16;5088326;28;20067;-76
2022/09/09 08:20:43;;;;;;;6.05;2.13;;;19.40;99.90;;;-147.18;100.00;67318.16;5066122;28;20043;-77
2022/09/09 08:24:10;;;;;;;11.15;2.30;;;19.50;99.90;;;-147.18;100.00;67318.16;5075924;28;20032;-77
2022/09/09 08:27:38;;;;;;;10.60;2.10;;;19.50;99.90;;;-147.18;100.00;67318.16;5072382;28;20048;-76
2022/09/09 08:31:06;;;;;;;9.60;2.10;;;19.50;99.90;;;-147.18;100.00;67318.16;5087627;28;20032;-76
2022/09/09 08:34:33;;;;;;;7.00;1.70;;;19.50;99.90;;;-147.18;100.00;67318.16;5069609;28;20051;-77
2022/09/09 08:38:03;;;;;;;6.83;1.83;;;19.60;99.90;;;-147.18;100.00;67318.16;5080507;28;20040;-75
2022/09/09 08:41:40;;;;;;;8.95;2.00;;;19.60;99.90;;;-147.18;100.00;67318.16;5094616;28;20044;-76
2022/09/09 08:45:19;;;;;;;8.00;2.53;;;19.60;99.90;;;-147.18;100.00;67318.16;5081016;28;20040;-77
2022/09/09 08:48:59;;;;;;;8.38;1.88;;;19.60;99.90;;;-147.18;100.00;67318.16;5084581;28;20451;-77
2022/09/09 08:52:37;;;;;;;8.70;2.13;;;19.60;99.90;;;-147.18;100.00;67318.16;5073919;28;20048;-77
2022/09/09 08:56:24;;;;;;;6.55;1.90;;;19.60;99.90;;;-147.18;100.00;67318.16;5087678;28;20451;-78
2022/09/09 08:59:57;;;;;;;4.85;1.60;;;19.60;99.90;;;-147.18;100.00;67318.16;5082919;28;20054;-77
2022/09/09 09:03:32;;;;;;;10.43;2.30;;;19.60;99.90;;;-147.18;100.00;67318.16;5088161;28;20551;-77
2022/09/09 09:07:09;;;;;;;9.20;2.30;;;19.70;99.90;;;-147.18;100.00;67318.16;5082576;28;20412;-77
2022/09/09 09:10:47;;;;;;;8.25;1.88;;;19.60;99.90;;;-147.18;100.00;67318.16;5076176;28;20131;-77
2022/09/09 09:14:23;;;;;;;7.68;1.70;;;19.60;99.90;;;-147.18;100.00;67318.16;5084869;28;20457;-77
2022/09/09 09:17:52;;;;;;;9.15;2.25;;;19.60;99.90;;;-147.18;100.00;67318.16;5073850;28;20067;-77
2022/09/09 09:21:33;;;;;;;5.55;1.63;;;19.70;99.90;;;-147.18;100.00;67318.16;5066031;28;20045;-77
2022/09/09 09:25:04;;;;;;;7.93;1.80;;;19.70;99.90;;;-147.18;100.00;67318.16;5077985;28;20047;-77
2022/09/09 09:28:33;;;;;;;8.25;1.90;;;19.70;99.90;;;-147.18;100.00;67318.16;5068075;28;20643;-77
2022/09/09 09:32:12;;;;;;;6.30;1.58;;;19.70;99.90;;;-147.18;100.00;67318.16;5092529;28;20430;-77
2022/09/09 09:35:38;;;;;;;8.85;2.15;;;19.70;99.90;;;-147.18;100.00;67318.16;5089882;28;20040;-77
2022/09/09 09:39:23;;;;;;;5.45;1.70;;;19.80;99.90;;;-147.18;100.00;67318.16;5078018;28;20075;-77
2022/09/09 09:42:52;;;;;;;8.88;1.42;;;19.80;99.90;;;-147.18;100.00;67318.16;5095659;28;20086;-77
2022/09/09 09:46:27;;;;;;;7.75;1.70;;;19.90;99.90;;;-147.18;100.00;67318.16;5062543;28;20044;-77
2022/09/09 09:49:59;;;;;;;9.85;1.63;;;19.90;99.90;;;-147.18;100.00;67318.16;5080170;28;20059;-77
2022/09/09 09:53:32;;;;;;;6.03;1.52;;;20.00;99.90;;;-147.18;100.00;67318.16;5102779;28;20067;-77
2022/09/09 09:57:09;;;;;;;8.40;1.70;;;20.00;99.90;;;-147.18;100.00;67318.16;5081645;28;20500;-77
2022/09/09 10:00:35;;;;;;;7.57;1.73;;;20.00;99.90;;;-147.18;100.00;67318.16;5089626;28;20043;-77
2022/09/09 10:04:20;;;;;;;7.05;1.60;;;20.10;99.90;;;-147.18;100.00;67318.16;5090577;28;20671;-77
2022/09/09 10:07:47;;;;;;;10.93;1.85;;;20.10;99.90;;;-147.18;100.00;67318.16;5062474;28;20051;-77
2022/09/09 10:11:30;;;;;;;11.63;1.83;;;20.00;99.90;;;-147.18;100.00;67318.16;5085794;28;20042;-77
2022/09/09 10:15:08;;;;;;;6.15;1.60;;;20.00;99.90;;;-147.18;100.00;67318.16;5098407;28;20086;-77
2022/09/09 10:18:40;;;;;;;5.55;1.40;;;20.20;99.90;;;-147.18;100.00;67318.16;5068255;28;20040;-77
2022/09/09 10:22:22;;;;;;;4.40;1.42;;;20.10;99.90;;;-147.18;100.00;67318.16;5082139;28;20047;-77
2022/09/09 10:26:23;;;;;;;4.82;1.10;;;20.20;99.90;;;-147.18;100.00;67318.16;5091399;28;20044;-77
2022/09/09 10:30:08;;;;;;;6.70;1.27;;;20.20;99.90;;;-147.18;100.00;67318.16;5077854;28;20400;-77
2022/09/09 10:33:47;;;;;;;5.18;1.30;;;20.40;99.90;;;-147.18;100.00;67318.16;5090481;28;20051;-77
2022/09/09 10:37:23;;;;;;;5.55;1.77;;;20.30;99.90;;;-147.18;100.00;67318.16;5088035;28;20044;-77
2022/09/09 10:41:05;;;;;;;6.82;1.60;;;20.30;99.90;;;-147.18;100.00;67318.16;5088968;28;20044;-77
2022/09/09 10:45:11;;;;;;;5.38;1.52;;;20.30;99.90;;;-147.18;100.00;67318.16;5045669;22;20049;-84
2022/09/09 10:49:03;;;;;;;5.05;1.40;;;20.30;99.90;;;-147.18;100.00;67318.16;5026492;28;20124;-87
2022/09/09 10:52:41;;;;;;;8.18;1.42;;;20.40;99.90;;;-147.18;100.00;67318.16;5031591;28;20054;-84
2022/09/09 10:56:13;;;;;;;3.63;1.20;;;20.40;99.90;;;-147.18;100.00;67318.16;5018063;28;20038;-84
2022/09/09 10:59:47;;;;;;;7.22;1.42;;;20.40;99.30;;;-147.18;100.00;67318.16;5016568;28;20037;-84
2022/09/09 11:03:19;;;;;;;4.45;1.50;;;20.40;99.90;;;-147.18;100.00;67318.16;5038246;28;20116;-84
2022/09/09 11:06:52;;;;;;;7.50;1.65;;;20.40;99.60;;;-147.18;100.00;67318.16;5031810;28;20047;-84
2022/09/09 11:10:25;;;;;;;6.35;1.27;;;20.40;99.90;;;-147.18;100.00;67318.16;5028763;28;20486;-83
2022/09/09 11:13:58;;;;;;;4.18;1.17;;;20.40;99.90;;;-147.18;100.00;67318.16;5007673;28;20099;-84
2022/09/09 11:17:33;;;;;;;4.88;1.10;;;20.40;99.90;;;-147.18;100.00;67318.16;5012779;28;20512;-84
2022/09/09 11:21:09;;;;;;;5.28;1.40;;;20.40;99.90;;;-147.18;100.00;67318.16;5004372;28;20472;-84
2022/09/09 11:24:42;;;;;;;5.80;1.30;;;20.40;99.90;;;-147.18;100.00;67318.16;5042694;28;20055;-84
2022/09/09 11:28:27;;;;;;;4.50;1.25;;;20.40;99.90;;;-147.18;100.00;67318.16;5043220;28;20114;-84
2022/09/09 11:32:12;;;;;;;3.90;1.20;;;20.50;99.90;;;-147.18;100.00;67318.16;5019953;28;20045;-84
2022/09/09 11:35:57;;;;;;;3.40;1.00;;;20.50;99.90;;;-147.18;100.00;67318.16;5031450;28;20064;-84
2022/09/09 11:39:39;;;;;;;6.25;1.20;;;20.50;99.70;;;-147.18;100.00;67318.16;5026677;28;20132;-84
2022/09/09 11:43:21;;;;;;;5.82;1.25;;;20.50;99.70;;;-147.18;100.00;67318.16;5036083;28;20049;-84
2022/09/09 11:46:52;;;;;;;4.35;1.10;;;20.50;99.80;;;-147.18;100.00;67318.16;5032870;28;20030;-84
2022/09/09 11:50:31;;;;;;;5.28;1.20;;;20.60;99.90;;;-147.18;100.00;67318.16;5019723;28;20050;-84
2022/09/09 11:54:30;;;;;;;5.38;1.30;;;20.60;99.90;;;-147.18;100.00;67318.16;5027823;28;20030;-85
2022/09/09 11:57:58;;;;;;;5.80;1.30;;;20.70;99.90;;;-147.18;100.00;67318.16;5019257;28;20042;-84
2022/09/09 12:01:41;;;;;;;4.85;1.60;;;20.70;99.90;;;-147.18;100.00;67318.16;5017843;28;20125;-88
2022/09/09 12:05:37;;;;;;;6.13;1.42;;;20.70;99.90;;;-147.18;100.00;67318.16;5028364;28;20566;-82
2022/09/09 12:09:08;;;;;;;4.90;1.20;;;20.60;99.90;;;-147.18;100.00;67318.16;5022990;28;20046;-83
2022/09/09 12:12:34;;;;;;;5.80;1.35;;;20.50;99.90;;;-147.18;100.00;67318.16;5008172;28;20104;-83
2022/09/09 12:16:29;;;;;;;5.95;1.38;;;20.50;99.90;;;-147.18;100.00;67318.16;5019145;28;20045;-82
2022/09/09 12:20:11;;;;;;;4.35;1.40;;;20.60;99.90;;;-147.18;100.00;67318.16;5020859;28;20068;-83
2022/09/09 12:23:51;;;;;;;4.28;1.38;;;20.60;99.90;;;-147.18;100.00;67318.16;5033319;28;20045;-83
2022/09/09 12:27:34;;;;;;;3.80;1.00;;;20.60;99.90;;;-147.18;100.00;67318.16;5034614;28;20057;-83
2022/09/09 12:31:07;;;;;;;3.00;1.30;;;20.60;99.90;;;-147.18;100.00;67318.16;5026140;28;20060;-83
2022/09/09 12:34:38;;;;;;;7.63;1.90;;;20.60;99.90;;;-147.18;100.00;67318.16;5038473;28;20600;-83
2022/09/09 12:38:18;;;;;;;7.22;1.33;;;20.50;99.90;;;-147.18;100.00;67318.16;5008321;28;20044;-82
2022/09/09 12:41:57;;;;;;;4.68;1.25;;;20.60;99.90;;;-147.18;100.00;67318.16;5011161;28;20084;-85
2022/09/09 12:45:25;;;;;;;4.43;1.42;;;20.60;99.90;;;-147.18;100.00;67318.16;5030631;28;20041;-85
2022/09/09 12:48:54;;;;;;;6.40;1.20;;;20.50;99.90;;;-147.18;100.00;67318.16;5030740;28;20113;-83
2022/09/09 12:52:30;;;;;;;4.18;1.30;;;20.60;99.90;;;-147.18;100.00;67318.16;5033230;28;20045;-88
2022/09/09 12:56:07;;;;;;;6.53;1.38;;;20.60;99.90;;;-147.18;100.00;67318.16;5037944;28;20045;-86
2022/09/09 12:59:36;;;;;;;5.68;1.50;;;20.60;99.90;;;-147.18;100.00;67318.16;5025835;28;20051;-83
2022/09/09 13:03:17;;;;;;;3.25;1.20;;;20.60;99.90;;;-147.18;100.00;67318.16;5034885;28;20037;-86
2022/09/09 13:06:49;;;;;;;5.55;1.48;;;20.60;99.90;;;-147.18;100.00;67318.16;5035001;28;20041;-83
2022/09/09 13:10:20;;;;;;;;;;;20.60;99.90;;;-147.18;100.00;67318.16;5040126;28;20041;-83
2022/09/09 13:13:51;;;;;;;4.07;1.20;;;20.70;99.90;;;-147.18;100.00;67318.16;5027766;28;19932;-84
2022/09/09 13:17:22;;;;;;;4.57;1.27;;;20.70;99.90;;;-147.18;100.00;67318.16;5034547;28;20041;-83
2022/09/09 13:20:48;;;;;;;3.30;1.40;;;20.70;99.90;;;-147.18;100.00;67318.16;5032267;28;20587;-82
2022/09/09 13:24:26;;;;;;;4.90;1.42;;;20.60;99.90;;;-147.18;100.00;67318.16;5037241;28;20048;-82
2022/09/09 13:27:56;;;;;;;5.45;1.35;;;20.50;99.90;;;-147.18;100.00;67318.16;5032452;28;20482;-83
2022/09/09 13:31:28;;;;;;;6.13;1.60;;;20.50;99.90;;;-147.18;100.00;67318.16;5026692;28;20034;-83
2022/09/09 13:34:55;;;;;;;5.53;1.83;;;20.40;99.90;;;-147.18;100.00;67318.16;5040327;28;20049;-83
2022/09/09 13:38:26;;;;;;;6.78;1.30;;;20.40;99.90;;;-147.18;100.00;67318.16;5023186;28;20118;-83
2022/09/09 13:41:54;;;;;;;4.03;1.17;;;20.30;99.90;;;-147.18;100.00;67318.16;5023343;28;20055;-83
2022/09/09 13:45:26;;;;;;;7.18;1.50;;;20.30;99.90;;;-147.18;100.00;67318.16;5031432;28;20115;-83
2022/09/09 13:48:55;;;;;;;;;;;20.30;99.90;;;-147.18;100.00;67318.16;5038563;28;20065;-83
2022/09/09 13:52:30;;;;;;;5.22;1.88;;;20.30;99.90;;;-147.18;100.00;67318.16;5031909;28;19928;-83
2022/09/09 13:55:58;;;;;;;7.18;1.83;;;20.30;99.90;;;-147.18;100.00;67318.16;5029245;28;20046;-83
2022/09/09 13:59:25;;;;;;;8.90;1.58;;;20.30;99.90;;;-147.18;100.00;67318.16;5035111;28;20033;-83
2022/09/09 14:02:51;;;;;;;7.70;1.60;;;20.20;99.90;;;-147.18;100.00;67318.16;5031468;28;20649;-83
2022/09/09 14:06:18;;;;;;;5.32;1.75;;;20.20;99.90;;;-147.18;100.00;67318.16;5037331;28;20039;-83
2022/09/09 14:09:45;;;;;;;6.13;1.65;;;20.20;99.90;;;-147.18;100.00;67318.16;5019414;28;20049;-82
2022/09/09 14:13:12;;;;;;;4.05;1.20;;;20.20;99.90;;;-147.18;100.00;67318.16;5037674;28;20543;-83
2022/09/09 14:16:38;;;;;;;9.93;1.95;;;20.20;99.90;;;-147.18;100.00;67318.16;5029630;28;20044;-83
2022/09/09 14:20:07;;;;;;;5.50;1.27;;;20.30;99.90;;;-147.18;100.00;67318.16;5037656;28;20037;-88
2022/09/09 14:23:33;;;;;;;4.82;1.30;;;20.30;99.90;;;-147.18;100.00;67318.16;5017473;28;20471;-84
2022/09/09 14:26:59;;;;;;;7.65;1.38;;;20.30;99.90;;;-147.18;100.00;67318.16;5039090;28;20037;-87